createdAt,value
2023-02-12T09:48:38.257Z,24.83
2023-02-12T09:51:07.728Z,25.63
2023-02-12T09:53:39.330Z,25.73
2023-02-12T09:56:20.454Z,26.27
2023-02-12T09:58:53.920Z,26.10
2023-02-12T10:01:25.268Z,24.87
2023-02-12T10:03:52.726Z,23.90
2023-02-12T10:06:32.706Z,25.30
2023-02-12T10:09:23.312Z,22.27
2023-02-12T10:12:31.407Z,24.80
2023-02-12T10:15:06.025Z,24.13
2023-02-12T10:17:46.566Z,23.03
2023-02-12T10:20:31.595Z,23.23
2023-02-12T10:23:30.076Z,23.80
2023-02-12T10:25:58.992Z,22.50
2023-02-12T10:28:32.085Z,22.03
2023-02-12T10:31:05.018Z,21.50
2023-02-12T10:33:36.392Z,26.30
2023-02-12T10:36:12.493Z,31.33
2023-02-12T10:38:41.120Z,27.83
2023-02-12T10:41:08.503Z,24.70
2023-02-12T10:43:35.543Z,22.20
2023-02-12T10:46:02.593Z,21.03
2023-02-12T10:48:37.323Z,21.77
2023-02-12T10:51:11.439Z,22.10
2023-02-12T10:53:40.379Z,23.70
2023-02-12T10:56:07.436Z,22.57
2023-02-12T10:58:34.451Z,21.70
2023-02-12T11:01:01.842Z,21.60
2023-02-12T11:03:30.464Z,22.17
2023-02-12T11:05:57.946Z,22.83
2023-02-12T11:08:28.140Z,24.13
2023-02-12T11:10:55.260Z,21.93
2023-02-12T11:13:31.423Z,21.40
2023-02-12T11:15:58.859Z,24.03
2023-02-12T11:18:27.519Z,23.33
2023-02-12T11:20:59.010Z,23.27
2023-02-12T11:23:29.472Z,24.17
2023-02-12T11:25:57.212Z,22.57
2023-02-12T11:28:24.533Z,21.90
2023-02-12T11:31:18.062Z,21.93
2023-02-12T11:33:45.692Z,22.90
2023-02-12T11:36:19.732Z,21.93
2023-02-12T11:38:52.410Z,22.20
2023-02-12T11:41:30.684Z,21.27
2023-02-12T11:43:57.334Z,22.07
2023-02-12T11:46:26.528Z,21.07
2023-02-12T11:48:55.317Z,22.57
2023-02-12T11:51:29.171Z,22.40
2023-02-12T11:53:59.963Z,21.40
2023-02-12T11:56:41.557Z,21.50
2023-02-12T11:59:21.929Z,20.63
2023-02-12T12:01:50.537Z,22.40
2023-02-12T12:04:20.358Z,18.50
2023-02-12T12:06:50.430Z,19.50
2023-02-12T12:09:34.877Z,19.13
2023-02-12T12:12:21.409Z,18.80
2023-02-12T12:15:17.591Z,19.10
2023-02-12T12:18:13.647Z,19.70
2023-02-12T12:20:52.702Z,18.33
2023-02-12T12:23:39.807Z,19.17
2023-02-12T12:26:18.502Z,18.60
2023-02-12T12:28:55.255Z,19.63
2023-02-12T12:31:31.532Z,18.60
2023-02-12T12:34:11.730Z,18.53
2023-02-12T12:36:51.210Z,18.60
2023-02-12T12:39:27.434Z,20.10
2023-02-12T12:42:18.203Z,20.00
2023-02-12T12:45:03.123Z,19.50
2023-02-12T12:47:39.145Z,20.50
2023-02-12T12:50:50.165Z,19.10
2023-02-12T12:53:45.351Z,18.30
2023-02-12T12:56:42.310Z,19.93
2023-02-12T12:59:11.692Z,20.60
2023-02-12T13:02:09.195Z,19.80
2023-02-12T13:05:10.286Z,21.20
2023-02-12T13:08:05.109Z,19.80
2023-02-12T13:10:39.793Z,22.60
2023-02-12T13:13:37.098Z,21.20
2023-02-12T13:16:14.787Z,19.43
2023-02-12T13:19:07.568Z,20.40
2023-02-12T13:22:15.551Z,20.23
2023-02-12T13:24:53.584Z,20.93
2023-02-12T13:27:24.580Z,19.20
2023-02-12T13:30:06.811Z,19.50
2023-02-12T13:32:46.209Z,20.30
2023-02-12T13:35:21.521Z,20.23
2023-02-12T13:37:54.687Z,20.00
2023-02-12T13:40:27.814Z,20.03
2023-02-12T13:43:19.048Z,21.63
2023-02-12T13:45:53.122Z,18.90
2023-02-12T13:48:41.286Z,19.37
2023-02-12T13:51:18.977Z,18.67
2023-02-12T13:54:07.500Z,20.40
2023-02-12T13:56:45.174Z,19.07
2023-02-12T13:59:30.994Z,30.13
2023-02-12T14:01:59.384Z,22.55
2023-02-12T14:04:31.654Z,19.93
2023-02-12T14:07:06.769Z,20.63
2023-02-12T14:09:46.105Z,20.13
2023-02-12T14:12:26.303Z,20.40
2023-02-12T14:14:57.850Z,21.10
2023-02-12T14:17:30.918Z,21.90
2023-02-12T14:20:11.574Z,21.57
2023-02-12T14:22:44.916Z,23.80
2023-02-12T14:25:15.111Z,23.50
2023-02-12T14:27:48.226Z,22.10
2023-02-12T14:30:15.218Z,22.97
2023-02-12T14:32:55.571Z,24.80
2023-02-12T14:35:33.135Z,22.87
2023-02-12T14:38:01.455Z,22.30
2023-02-12T14:40:40.458Z,20.77
2023-02-12T14:43:26.343Z,20.20
2023-02-12T14:45:54.033Z,20.33
2023-02-12T14:48:41.566Z,20.30
2023-02-12T14:51:15.203Z,21.90
2023-02-12T14:53:42.676Z,21.40
2023-02-12T14:56:12.282Z,21.07
2023-02-12T14:58:39.722Z,22.43
2023-02-12T15:01:07.226Z,20.03
2023-02-12T15:04:10.021Z,20.40
2023-02-12T15:06:39.384Z,19.90
2023-02-12T15:09:16.412Z,18.30
2023-02-12T15:11:50.582Z,20.03
2023-02-12T15:14:37.938Z,19.90
2023-02-12T15:17:27.221Z,20.40
2023-02-12T15:20:06.082Z,20.00
2023-02-12T15:22:38.179Z,18.60
2023-02-12T15:25:25.503Z,20.48
2023-02-12T15:27:56.571Z,20.10
2023-02-12T15:30:26.904Z,19.40
2023-02-12T15:32:56.672Z,19.87
2023-02-12T15:35:32.452Z,18.80
2023-02-12T15:38:03.515Z,20.70
2023-02-12T15:40:31.689Z,19.50
2023-02-12T15:43:00.530Z,21.23
2023-02-12T15:45:28.910Z,21.13
2023-02-12T15:47:58.397Z,20.67
2023-02-12T15:50:25.947Z,20.00
2023-02-12T15:52:53.412Z,21.10
2023-02-12T15:55:21.813Z,19.77
2023-02-12T15:58:02.136Z,19.70
2023-02-12T16:00:31.368Z,18.53
2023-02-12T16:02:58.582Z,18.63
2023-02-12T16:05:26.494Z,19.80
2023-02-12T16:07:53.948Z,20.10
2023-02-12T16:10:21.658Z,20.70
2023-02-12T16:12:49.383Z,19.30
2023-02-12T16:15:27.445Z,21.13
2023-02-12T16:17:57.659Z,21.20
2023-02-12T16:20:27.706Z,20.03
2023-02-12T16:22:55.581Z,19.80
2023-02-12T16:25:27.947Z,21.87
2023-02-12T16:27:58.077Z,21.20
2023-02-12T16:30:29.852Z,21.30
2023-02-12T16:32:57.438Z,22.20
2023-02-12T16:35:26.450Z,20.80
2023-02-12T16:38:04.481Z,21.63
2023-02-12T16:40:33.126Z,21.50
2023-02-12T16:43:03.154Z,22.20
2023-02-12T16:45:37.191Z,22.27
2023-02-12T16:48:15.619Z,23.57
2023-02-12T16:50:47.317Z,25.00
2023-02-12T16:53:35.304Z,23.10
2023-02-12T16:56:03.436Z,22.63
2023-02-12T16:58:30.727Z,23.63
2023-02-12T17:00:58.994Z,24.40
2023-02-12T17:13:17.876Z,22.50
2023-02-12T17:15:56.544Z,22.65
2023-02-12T18:27:02.212Z,22.10
2023-02-12T18:29:29.282Z,21.77
2023-02-12T18:31:56.393Z,22.37
2023-02-12T18:34:24.713Z,21.37
2023-02-12T18:36:51.749Z,21.67
2023-02-12T18:39:18.774Z,20.93
2023-02-12T18:41:47.531Z,21.57
2023-02-12T18:44:14.970Z,20.13
2023-02-12T18:46:42.222Z,20.50
2023-02-12T18:49:09.737Z,21.60
2023-02-12T18:51:39.152Z,19.87
2023-02-12T18:54:07.977Z,21.50
2023-02-12T18:56:36.526Z,19.87
2023-02-12T18:59:04.806Z,19.70
2023-02-12T19:01:32.433Z,20.30
2023-02-12T19:04:00.823Z,20.03
2023-02-12T19:06:31.558Z,20.30
2023-02-12T19:08:59.925Z,19.93
2023-02-12T19:11:27.624Z,22.17
2023-02-12T19:13:54.746Z,19.23
2023-02-12T19:16:23.557Z,21.17
2023-02-12T19:18:51.489Z,22.43
2023-02-12T19:21:18.854Z,21.23
2023-02-12T19:23:45.516Z,20.73
2023-02-12T19:26:14.962Z,22.20
2023-02-12T19:28:43.077Z,21.47
2023-02-12T19:31:24.463Z,21.83
2023-02-12T19:33:55.555Z,20.80
2023-02-12T19:36:22.363Z,20.80
2023-02-12T19:38:49.429Z,20.97
2023-02-12T19:41:20.576Z,21.33
2023-02-12T19:43:47.541Z,21.73
2023-02-12T19:46:19.325Z,20.63
2023-02-12T19:48:46.998Z,20.00
2023-02-12T19:51:20.639Z,19.43
2023-02-12T19:53:47.920Z,19.63
2023-02-12T19:56:16.361Z,20.20
2023-02-12T19:58:43.728Z,19.50
2023-02-12T20:01:11.417Z,18.33
2023-02-12T20:03:38.522Z,19.87
2023-02-12T20:06:09.598Z,20.13
2023-02-12T20:08:41.241Z,20.10
2023-02-12T20:11:10.534Z,20.67
2023-02-12T20:13:37.180Z,18.50
2023-02-12T20:16:31.125Z,18.90
2023-02-12T20:19:01.383Z,18.60
2023-02-12T20:21:28.742Z,20.37
2023-02-12T20:23:56.087Z,18.33
2023-02-12T20:26:23.726Z,18.80
2023-02-12T20:28:50.896Z,18.67
2023-02-12T20:31:21.856Z,18.47
2023-02-12T20:33:52.919Z,17.40
2023-02-12T20:36:19.582Z,19.30
2023-02-12T20:38:50.151Z,20.10
2023-02-12T20:41:16.772Z,19.30
2023-02-12T20:43:43.377Z,19.57
2023-02-12T20:46:14.428Z,18.67
2023-02-12T20:48:41.928Z,18.23
2023-02-12T20:51:14.520Z,18.30
2023-02-12T20:53:42.288Z,16.70
2023-02-12T20:56:11.897Z,18.00
2023-02-12T20:58:40.315Z,18.80
2023-02-12T21:01:09.691Z,16.90
2023-02-12T21:03:37.236Z,16.57
2023-02-12T21:06:04.045Z,17.60
2023-02-12T21:08:31.375Z,18.77
2023-02-12T21:11:02.896Z,18.97
2023-02-12T21:13:29.590Z,19.07
2023-02-12T21:16:06.697Z,17.83
2023-02-12T21:18:33.710Z,19.07
2023-02-12T21:21:07.316Z,17.77
2023-02-12T21:23:35.111Z,17.93
2023-02-12T21:26:04.494Z,17.87
2023-02-12T21:28:32.472Z,17.73
2023-02-12T21:31:09.854Z,17.23
2023-02-12T21:33:37.970Z,17.13
2023-02-12T21:36:10.410Z,16.93
2023-02-12T21:38:38.639Z,17.50
2023-02-12T21:41:11.014Z,17.23
2023-02-12T21:43:38.547Z,18.47
2023-02-12T21:46:06.008Z,18.20
2023-02-12T21:48:33.142Z,16.90
2023-02-12T21:51:00.441Z,16.50
2023-02-12T21:53:27.528Z,17.77
2023-02-12T21:55:55.243Z,17.80
2023-02-12T21:58:23.071Z,17.37
2023-02-12T22:00:50.519Z,17.77
2023-02-12T22:03:19.134Z,16.10
2023-02-12T22:05:46.362Z,17.53
2023-02-12T22:08:12.945Z,16.80
2023-02-12T22:10:39.525Z,16.20
2023-02-12T22:13:06.117Z,17.53
2023-02-12T22:15:32.761Z,16.20
2023-02-12T22:17:59.403Z,16.30
2023-02-12T22:20:25.947Z,16.00
2023-02-12T22:22:52.497Z,16.40
2023-02-12T22:25:19.173Z,16.53
2023-02-12T22:27:45.781Z,17.73
2023-02-12T22:30:12.663Z,17.10
2023-02-12T22:32:39.405Z,16.17
2023-02-12T22:35:06.639Z,15.90
2023-02-12T22:37:33.306Z,17.80
2023-02-12T22:39:59.865Z,16.50
2023-02-12T22:42:26.531Z,15.70
2023-02-12T22:44:53.243Z,16.07
2023-02-12T22:47:23.108Z,16.83
2023-02-12T22:49:49.727Z,17.27
2023-02-12T22:52:16.416Z,16.60
2023-02-12T22:54:43.251Z,16.73
2023-02-12T22:57:09.876Z,17.17
2023-02-12T22:59:36.461Z,16.50
2023-02-12T23:02:04.137Z,17.47
2023-02-12T23:04:30.811Z,17.33
2023-02-12T23:06:57.785Z,17.23
2023-02-12T23:09:24.372Z,16.43
2023-02-12T23:11:51.071Z,16.43
2023-02-12T23:14:17.941Z,17.10
2023-02-12T23:16:45.044Z,16.93
2023-02-12T23:19:12.224Z,16.33
2023-02-12T23:21:39.066Z,17.20
2023-02-12T23:24:06.208Z,17.30
2023-02-12T23:26:32.885Z,15.87
2023-02-12T23:28:59.539Z,16.77
2023-02-12T23:31:26.431Z,17.70
2023-02-12T23:33:53.158Z,17.20
2023-02-12T23:36:19.760Z,17.70
2023-02-12T23:38:46.341Z,17.40
2023-02-12T23:41:13.013Z,17.63
2023-02-12T23:43:39.640Z,15.80
2023-02-12T23:46:06.374Z,16.60
2023-02-12T23:48:33.055Z,17.37
2023-02-12T23:50:59.891Z,17.93
2023-02-12T23:53:26.670Z,17.50
2023-02-12T23:55:53.402Z,17.70
2023-02-12T23:58:19.985Z,17.93
